sensor_id;sensor_type;location;lat;lon;timestamp;P1;durP1;ratioP1;P2;durP2;ratioP2
5341;SDS011;2693;48.822;9.062;2024-02-21T00:01:35;7.63;;;3.70;;
5341;SDS011;2693;48.822;9.062;2024-02-21T00:04:02;10.63;;;4.68;;
5341;SDS011;2693;48.822;9.062;2024-02-21T00:06:27;8.43;;;4.43;;
5341;SDS011;2693;48.822;9.062;2024-02-21T00:08:53;9.27;;;4.30;;
5341;SDS011;2693;48.822;9.062;2024-02-21T00:11:18;11.32;;;4.05;;
5341;SDS011;2693;48.822;9.062;2024-02-21T00:13:43;8.52;;;4.32;;
5341;SDS011;2693;48.822;9.062;2024-02-21T00:16:09;10.77;;;4.13;;
5341;SDS011;2693;48.822;9.062;2024-02-21T00:18:35;10.20;;;4.40;;
5341;SDS011;2693;48.822;9.062;2024-02-21T00:21:01;8.70;;;4.18;;
5341;SDS011;2693;48.822;9.062;2024-02-21T00:23:26;9.93;;;4.65;;
5341;SDS011;2693;48.822;9.062;2024-02-21T00:25:53;7.88;;;3.85;;
5341;SDS011;2693;48.822;9.062;2024-02-21T00:28:18;7.70;;;4.22;;
5341;SDS011;2693;48.822;9.062;2024-02-21T00:30:44;9.98;;;4.65;;
5341;SDS011;2693;48.822;9.062;2024-02-21T00:33:09;8.85;;;4.30;;
5341;SDS011;2693;48.822;9.062;2024-02-21T00:35:34;7.75;;;3.60;;
5341;SDS011;2693;48.822;9.062;2024-02-21T00:38:00;6.38;;;3.75;;
5341;SDS011;2693;48.822;9.062;2024-02-21T00:40:25;8.20;;;3.92;;
5341;SDS011;2693;48.822;9.062;2024-02-21T00:42:51;8.13;;;3.92;;
5341;SDS011;2693;48.822;9.062;2024-02-21T00:45:16;6.97;;;4.20;;
5341;SDS011;2693;48.822;9.062;2024-02-21T00:47:41;12.25;;;4.13;;
5341;SDS011;2693;48.822;9.062;2024-02-21T00:50:07;8.82;;;3.45;;
5341;SDS011;2693;48.822;9.062;2024-02-21T00:52:33;7.35;;;3.75;;
5341;SDS011;2693;48.822;9.062;2024-02-21T00:54:58;7.97;;;3.75;;
5341;SDS011;2693;48.822;9.062;2024-02-21T00:57:23;8.32;;;3.80;;
5341;SDS011;2693;48.822;9.062;2024-02-21T00:59:49;7.82;;;4.35;;
5341;SDS011;2693;48.822;9.062;2024-02-21T01:02:14;8.75;;;3.63;;
5341;SDS011;2693;48.822;9.062;2024-02-21T01:04:40;6.95;;;4.20;;
5341;SDS011;2693;48.822;9.062;2024-02-21T01:07:05;8.00;;;3.97;;
5341;SDS011;2693;48.822;9.062;2024-02-21T01:09:30;6.75;;;3.30;;
5341;SDS011;2693;48.822;9.062;2024-02-21T01:11:56;9.65;;;3.70;;
5341;SDS011;2693;48.822;9.062;2024-02-21T01:14:21;5.97;;;3.25;;
5341;SDS011;2693;48.822;9.062;2024-02-21T01:16:46;7.00;;;3.40;;
5341;SDS011;2693;48.822;9.062;2024-02-21T01:19:12;10.45;;;3.90;;
5341;SDS011;2693;48.822;9.062;2024-02-21T01:21:37;8.23;;;2.97;;
5341;SDS011;2693;48.822;9.062;2024-02-21T01:24:02;4.68;;;3.05;;
5341;SDS011;2693;48.822;9.062;2024-02-21T01:26:28;6.90;;;3.38;;
5341;SDS011;2693;48.822;9.062;2024-02-21T01:28:53;7.22;;;3.60;;
5341;SDS011;2693;48.822;9.062;2024-02-21T01:31:18;6.93;;;3.38;;
5341;SDS011;2693;48.822;9.062;2024-02-21T01:33:44;7.82;;;3.05;;
5341;SDS011;2693;48.822;9.062;2024-02-21T01:36:09;7.45;;;3.10;;
5341;SDS011;2693;48.822;9.062;2024-02-21T01:38:35;8.70;;;3.17;;
5341;SDS011;2693;48.822;9.062;2024-02-21T01:41:00;6.85;;;2.70;;
5341;SDS011;2693;48.822;9.062;2024-02-21T01:43:26;7.30;;;2.95;;
5341;SDS011;2693;48.822;9.062;2024-02-21T01:45:53;5.82;;;2.63;;
5341;SDS011;2693;48.822;9.062;2024-02-21T01:48:21;5.18;;;2.38;;
5341;SDS011;2693;48.822;9.062;2024-02-21T01:50:48;4.95;;;2.60;;
5341;SDS011;2693;48.822;9.062;2024-02-21T01:53:27;11.13;;;3.10;;
5341;SDS011;2693;48.822;9.062;2024-02-21T01:55:55;8.60;;;3.00;;
5341;SDS011;2693;48.822;9.062;2024-02-21T01:58:20;5.97;;;2.58;;
5341;SDS011;2693;48.822;9.062;2024-02-21T02:00:46;5.57;;;2.80;;
5341;SDS011;2693;48.822;9.062;2024-02-21T02:03:12;8.15;;;3.40;;
5341;SDS011;2693;48.822;9.062;2024-02-21T02:05:45;6.20;;;2.63;;
5341;SDS011;2693;48.822;9.062;2024-02-21T02:08:11;6.55;;;2.88;;
5341;SDS011;2693;48.822;9.062;2024-02-21T02:10:39;9.23;;;3.30;;
5341;SDS011;2693;48.822;9.062;2024-02-21T02:13:05;5.20;;;2.65;;
5341;SDS011;2693;48.822;9.062;2024-02-21T02:15:43;9.02;;;3.30;;
5341;SDS011;2693;48.822;9.062;2024-02-21T02:18:13;7.55;;;2.97;;
5341;SDS011;2693;48.822;9.062;2024-02-21T02:20:39;9.57;;;3.10;;
5341;SDS011;2693;48.822;9.062;2024-02-21T02:23:11;6.55;;;2.72;;
5341;SDS011;2693;48.822;9.062;2024-02-21T02:25:37;6.28;;;3.17;;
5341;SDS011;2693;48.822;9.062;2024-02-21T02:28:04;10.85;;;3.60;;
5341;SDS011;2693;48.822;9.062;2024-02-21T02:30:34;6.47;;;2.60;;
5341;SDS011;2693;48.822;9.062;2024-02-21T02:33:01;7.65;;;2.88;;
5341;SDS011;2693;48.822;9.062;2024-02-21T02:35:27;9.73;;;2.67;;
5341;SDS011;2693;48.822;9.062;2024-02-21T02:37:52;7.60;;;3.13;;
5341;SDS011;2693;48.822;9.062;2024-02-21T02:40:18;5.32;;;2.83;;
5341;SDS011;2693;48.822;9.062;2024-02-21T02:42:43;5.45;;;2.85;;
5341;SDS011;2693;48.822;9.062;2024-02-21T02:45:09;5.20;;;2.50;;
5341;SDS011;2693;48.822;9.062;2024-02-21T02:47:34;5.28;;;2.47;;
5341;SDS011;2693;48.822;9.062;2024-02-21T02:50:00;8.85;;;2.67;;
5341;SDS011;2693;48.822;9.062;2024-02-21T02:52:26;2.72;;;2.10;;
5341;SDS011;2693;48.822;9.062;2024-02-21T02:54:51;5.78;;;2.50;;
5341;SDS011;2693;48.822;9.062;2024-02-21T02:57:18;5.20;;;2.45;;
5341;SDS011;2693;48.822;9.062;2024-02-21T02:59:50;6.72;;;2.25;;
5341;SDS011;2693;48.822;9.062;2024-02-21T03:02:16;5.28;;;2.60;;
5341;SDS011;2693;48.822;9.062;2024-02-21T03:04:42;5.75;;;2.35;;
5341;SDS011;2693;48.822;9.062;2024-02-21T03:07:07;5.05;;;2.20;;
5341;SDS011;2693;48.822;9.062;2024-02-21T03:09:33;5.82;;;2.40;;
5341;SDS011;2693;48.822;9.062;2024-02-21T03:11:58;8.25;;;3.00;;
5341;SDS011;2693;48.822;9.062;2024-02-21T03:14:29;6.55;;;3.00;;
5341;SDS011;2693;48.822;9.062;2024-02-21T03:16:55;7.03;;;2.67;;
5341;SDS011;2693;48.822;9.062;2024-02-21T03:19:20;6.93;;;2.80;;
5341;SDS011;2693;48.822;9.062;2024-02-21T03:21:46;9.63;;;2.85;;
5341;SDS011;2693;48.822;9.062;2024-02-21T03:24:11;6.82;;;2.95;;
5341;SDS011;2693;48.822;9.062;2024-02-21T03:26:36;7.53;;;2.83;;
5341;SDS011;2693;48.822;9.062;2024-02-21T03:29:03;8.75;;;2.63;;
5341;SDS011;2693;48.822;9.062;2024-02-21T03:31:28;7.22;;;3.05;;
5341;SDS011;2693;48.822;9.062;2024-02-21T03:33:54;3.20;;;2.20;;
5341;SDS011;2693;48.822;9.062;2024-02-21T03:36:19;4.57;;;2.60;;
5341;SDS011;2693;48.822;9.062;2024-02-21T03:38:45;6.22;;;2.83;;
5341;SDS011;2693;48.822;9.062;2024-02-21T03:41:10;6.82;;;3.10;;
5341;SDS011;2693;48.822;9.062;2024-02-21T03:43:37;5.85;;;2.60;;
5341;SDS011;2693;48.822;9.062;2024-02-21T03:46:03;6.95;;;2.67;;
5341;SDS011;2693;48.822;9.062;2024-02-21T03:48:29;5.35;;;2.97;;
5341;SDS011;2693;48.822;9.062;2024-02-21T03:50:54;5.28;;;2.90;;
5341;SDS011;2693;48.822;9.062;2024-02-21T03:53:19;5.20;;;2.90;;
5341;SDS011;2693;48.822;9.062;2024-02-21T03:55:45;3.72;;;2.42;;
5341;SDS011;2693;48.822;9.062;2024-02-21T03:58:10;5.68;;;3.03;;
5341;SDS011;2693;48.822;9.062;2024-02-21T04:00:35;6.93;;;2.67;;
5341;SDS011;2693;48.822;9.062;2024-02-21T04:03:01;5.63;;;3.10;;
5341;SDS011;2693;48.822;9.062;2024-02-21T04:05:26;7.05;;;2.80;;
5341;SDS011;2693;48.822;9.062;2024-02-21T04:07:53;5.28;;;2.97;;
5341;SDS011;2693;48.822;9.062;2024-02-21T04:10:18;4.90;;;2.80;;
5341;SDS011;2693;48.822;9.062;2024-02-21T04:12:44;6.78;;;3.03;;
5341;SDS011;2693;48.822;9.062;2024-02-21T04:15:09;3.50;;;2.53;;
5341;SDS011;2693;48.822;9.062;2024-02-21T04:17:34;4.88;;;2.38;;
5341;SDS011;2693;48.822;9.062;2024-02-21T04:20:02;4.68;;;2.97;;
5341;SDS011;2693;48.822;9.062;2024-02-21T04:22:30;9.13;;;2.80;;
5341;SDS011;2693;48.822;9.062;2024-02-21T04:24:57;5.60;;;2.60;;
5341;SDS011;2693;48.822;9.062;2024-02-21T04:27:22;4.93;;;2.45;;
5341;SDS011;2693;48.822;9.062;2024-02-21T04:29:48;5.38;;;2.63;;
5341;SDS011;2693;48.822;9.062;2024-02-21T04:32:13;7.13;;;2.83;;
5341;SDS011;2693;48.822;9.062;2024-02-21T04:34:40;5.38;;;2.58;;
5341;SDS011;2693;48.822;9.062;2024-02-21T04:37:06;2.75;;;2.15;;
5341;SDS011;2693;48.822;9.062;2024-02-21T04:39:31;4.25;;;2.30;;
5341;SDS011;2693;48.822;9.062;2024-02-21T04:41:56;4.75;;;2.53;;
5341;SDS011;2693;48.822;9.062;2024-02-21T04:44:22;6.07;;;2.67;;
5341;SDS011;2693;48.822;9.062;2024-02-21T04:46:47;3.55;;;2.67;;
5341;SDS011;2693;48.822;9.062;2024-02-21T04:49:12;4.50;;;2.80;;
5341;SDS011;2693;48.822;9.062;2024-02-21T04:51:39;6.65;;;3.33;;
5341;SDS011;2693;48.822;9.062;2024-02-21T04:54:05;4.93;;;2.55;;
5341;SDS011;2693;48.822;9.062;2024-02-21T04:56:30;6.20;;;2.65;;
5341;SDS011;2693;48.822;9.062;2024-02-21T04:58:56;9.45;;;2.97;;
5341;SDS011;2693;48.822;9.062;2024-02-21T05:01:21;5.90;;;2.83;;
5341;SDS011;2693;48.822;9.062;2024-02-21T05:03:46;5.82;;;2.58;;
5341;SDS011;2693;48.822;9.062;2024-02-21T05:06:12;7.05;;;3.28;;
5341;SDS011;2693;48.822;9.062;2024-02-21T05:08:37;5.03;;;2.80;;
5341;SDS011;2693;48.822;9.062;2024-02-21T05:11:02;6.05;;;2.85;;
5341;SDS011;2693;48.822;9.062;2024-02-21T05:13:28;5.28;;;2.50;;
5341;SDS011;2693;48.822;9.062;2024-02-21T05:15:53;8.65;;;3.10;;
5341;SDS011;2693;48.822;9.062;2024-02-21T05:18:19;8.68;;;3.47;;
5341;SDS011;2693;48.822;9.062;2024-02-21T05:20:45;7.32;;;3.08;;
5341;SDS011;2693;48.822;9.062;2024-02-21T05:23:11;7.53;;;2.95;;
5341;SDS011;2693;48.822;9.062;2024-02-21T05:25:36;8.77;;;3.20;;
5341;SDS011;2693;48.822;9.062;2024-02-21T05:28:02;5.03;;;2.80;;
5341;SDS011;2693;48.822;9.062;2024-02-21T05:30:28;9.73;;;2.90;;
5341;SDS011;2693;48.822;9.062;2024-02-21T05:32:54;7.30;;;3.00;;
5341;SDS011;2693;48.822;9.062;2024-02-21T05:35:19;8.95;;;2.50;;
5341;SDS011;2693;48.822;9.062;2024-02-21T05:37:46;6.57;;;3.03;;
5341;SDS011;2693;48.822;9.062;2024-02-21T05:40:13;5.20;;;2.50;;
5341;SDS011;2693;48.822;9.062;2024-02-21T05:42:38;5.70;;;2.70;;
5341;SDS011;2693;48.822;9.062;2024-02-21T05:45:04;5.60;;;2.70;;
5341;SDS011;2693;48.822;9.062;2024-02-21T05:47:30;7.13;;;2.72;;
5341;SDS011;2693;48.822;9.062;2024-02-21T05:49:55;6.93;;;2.45;;
5341;SDS011;2693;48.822;9.062;2024-02-21T05:52:21;6.43;;;2.78;;
5341;SDS011;2693;48.822;9.062;2024-02-21T05:54:47;4.07;;;2.42;;
5341;SDS011;2693;48.822;9.062;2024-02-21T05:57:12;5.63;;;2.42;;
5341;SDS011;2693;48.822;9.062;2024-02-21T05:59:38;5.18;;;2.63;;
5341;SDS011;2693;48.822;9.062;2024-02-21T06:02:05;6.03;;;2.88;;
5341;SDS011;2693;48.822;9.062;2024-02-21T06:04:30;4.93;;;2.45;;
5341;SDS011;2693;48.822;9.062;2024-02-21T06:06:56;8.73;;;2.58;;
5341;SDS011;2693;48.822;9.062;2024-02-21T06:09:21;8.00;;;2.83;;
5341;SDS011;2693;48.822;9.062;2024-02-21T06:11:46;6.60;;;2.85;;
5341;SDS011;2693;48.822;9.062;2024-02-21T06:14:14;5.35;;;2.50;;
5341;SDS011;2693;48.822;9.062;2024-02-21T06:16:39;8.32;;;2.78;;
5341;SDS011;2693;48.822;9.062;2024-02-21T06:19:04;5.72;;;2.67;;
5341;SDS011;2693;48.822;9.062;2024-02-21T06:21:30;4.78;;;2.33;;
5341;SDS011;2693;48.822;9.062;2024-02-21T06:23:55;4.95;;;2.58;;
5341;SDS011;2693;48.822;9.062;2024-02-21T06:26:20;7.60;;;2.70;;
5341;SDS011;2693;48.822;9.062;2024-02-21T06:28:46;3.83;;;3.03;;
5341;SDS011;2693;48.822;9.062;2024-02-21T06:31:11;7.18;;;2.63;;
5341;SDS011;2693;48.822;9.062;2024-02-21T06:33:37;5.55;;;2.65;;
5341;SDS011;2693;48.822;9.062;2024-02-21T06:36:02;11.57;;;3.40;;
5341;SDS011;2693;48.822;9.062;2024-02-21T06:38:28;3.80;;;3.00;;
5341;SDS011;2693;48.822;9.062;2024-02-21T06:40:53;7.90;;;3.45;;
5341;SDS011;2693;48.822;9.062;2024-02-21T06:43:20;6.07;;;2.60;;
5341;SDS011;2693;48.822;9.062;2024-02-21T06:45:45;5.00;;;2.28;;
5341;SDS011;2693;48.822;9.062;2024-02-21T06:48:15;6.05;;;2.92;;
5341;SDS011;2693;48.822;9.062;2024-02-21T06:50:41;4.15;;;2.20;;
5341;SDS011;2693;48.822;9.062;2024-02-21T06:53:06;4.15;;;2.60;;
5341;SDS011;2693;48.822;9.062;2024-02-21T06:55:31;7.47;;;2.85;;
5341;SDS011;2693;48.822;9.062;2024-02-21T06:57:57;6.50;;;2.08;;
5341;SDS011;2693;48.822;9.062;2024-02-21T07:00:22;4.03;;;1.92;;
5341;SDS011;2693;48.822;9.062;2024-02-21T07:02:48;5.40;;;1.92;;
5341;SDS011;2693;48.822;9.062;2024-02-21T07:05:13;3.97;;;2.03;;
5341;SDS011;2693;48.822;9.062;2024-02-21T07:07:39;6.15;;;2.20;;
5341;SDS011;2693;48.822;9.062;2024-02-21T07:10:05;8.05;;;1.98;;
5341;SDS011;2693;48.822;9.062;2024-02-21T07:12:31;3.83;;;1.77;;
5341;SDS011;2693;48.822;9.062;2024-02-21T07:14:56;5.85;;;2.03;;
5341;SDS011;2693;48.822;9.062;2024-02-21T07:17:22;5.68;;;1.95;;
5341;SDS011;2693;48.822;9.062;2024-02-21T07:19:47;4.75;;;1.92;;
5341;SDS011;2693;48.822;9.062;2024-02-21T07:22:12;3.53;;;1.70;;
5341;SDS011;2693;48.822;9.062;2024-02-21T07:24:38;3.40;;;1.95;;
5341;SDS011;2693;48.822;9.062;2024-02-21T07:27:03;7.05;;;1.73;;
5341;SDS011;2693;48.822;9.062;2024-02-21T07:29:29;3.53;;;1.45;;
5341;SDS011;2693;48.822;9.062;2024-02-21T07:31:55;4.80;;;1.50;;
5341;SDS011;2693;48.822;9.062;2024-02-21T07:34:21;5.57;;;1.92;;
5341;SDS011;2693;48.822;9.062;2024-02-21T07:36:46;7.22;;;2.17;;
5341;SDS011;2693;48.822;9.062;2024-02-21T07:39:12;4.25;;;1.80;;
5341;SDS011;2693;48.822;9.062;2024-02-21T07:41:37;4.03;;;1.60;;
5341;SDS011;2693;48.822;9.062;2024-02-21T07:44:04;4.97;;;1.40;;
5341;SDS011;2693;48.822;9.062;2024-02-21T07:46:30;5.70;;;1.63;;
5341;SDS011;2693;48.822;9.062;2024-02-21T07:48:55;3.40;;;1.50;;
5341;SDS011;2693;48.822;9.062;2024-02-21T07:51:20;4.60;;;1.50;;
5341;SDS011;2693;48.822;9.062;2024-02-21T07:53:46;5.22;;;1.55;;
5341;SDS011;2693;48.822;9.062;2024-02-21T07:56:12;5.70;;;2.05;;
5341;SDS011;2693;48.822;9.062;2024-02-21T07:58:38;4.00;;;1.73;;
5341;SDS011;2693;48.822;9.062;2024-02-21T08:01:04;3.80;;;1.73;;
5341;SDS011;2693;48.822;9.062;2024-02-21T08:03:30;4.13;;;1.80;;
5341;SDS011;2693;48.822;9.062;2024-02-21T08:05:55;4.15;;;1.67;;
5341;SDS011;2693;48.822;9.062;2024-02-21T08:08:20;4.55;;;1.80;;
5341;SDS011;2693;48.822;9.062;2024-02-21T08:10:47;3.17;;;1.65;;
5341;SDS011;2693;48.822;9.062;2024-02-21T08:13:13;2.83;;;1.42;;
5341;SDS011;2693;48.822;9.062;2024-02-21T08:15:39;5.18;;;1.70;;
5341;SDS011;2693;48.822;9.062;2024-02-21T08:18:06;4.90;;;1.85;;
5341;SDS011;2693;48.822;9.062;2024-02-21T08:20:32;4.53;;;1.48;;
5341;SDS011;2693;48.822;9.062;2024-02-21T08:22:57;3.05;;;1.20;;
5341;SDS011;2693;48.822;9.062;2024-02-21T08:25:23;3.00;;;1.50;;
5341;SDS011;2693;48.822;9.062;2024-02-21T08:27:48;3.40;;;1.92;;
5341;SDS011;2693;48.822;9.062;2024-02-21T08:30:14;4.68;;;1.88;;
5341;SDS011;2693;48.822;9.062;2024-02-21T08:32:39;4.75;;;1.67;;
5341;SDS011;2693;48.822;9.062;2024-02-21T08:35:05;5.10;;;2.35;;
5341;SDS011;2693;48.822;9.062;2024-02-21T08:37:31;10.27;;;2.40;;
5341;SDS011;2693;48.822;9.062;2024-02-21T08:39:56;3.92;;;1.67;;
5341;SDS011;2693;48.822;9.062;2024-02-21T08:42:21;5.65;;;1.60;;
5341;SDS011;2693;48.822;9.062;2024-02-21T08:44:47;4.25;;;1.70;;
5341;SDS011;2693;48.822;9.062;2024-02-21T08:47:12;3.08;;;1.77;;
5341;SDS011;2693;48.822;9.062;2024-02-21T08:49:38;3.50;;;1.35;;
5341;SDS011;2693;48.822;9.062;2024-02-21T08:52:03;4.05;;;1.60;;
5341;SDS011;2693;48.822;9.062;2024-02-21T08:54:29;4.18;;;1.75;;
5341;SDS011;2693;48.822;9.062;2024-02-21T08:56:54;5.32;;;1.80;;
5341;SDS011;2693;48.822;9.062;2024-02-21T08:59:20;4.30;;;1.50;;
5341;SDS011;2693;48.822;9.062;2024-02-21T09:01:46;5.43;;;1.90;;
5341;SDS011;2693;48.822;9.062;2024-02-21T09:04:11;4.32;;;1.95;;
5341;SDS011;2693;48.822;9.062;2024-02-21T09:06:37;5.18;;;1.60;;
5341;SDS011;2693;48.822;9.062;2024-02-21T09:09:06;3.75;;;1.73;;
5341;SDS011;2693;48.822;9.062;2024-02-21T09:11:33;4.25;;;1.55;;
5341;SDS011;2693;48.822;9.062;2024-02-21T09:13:59;2.08;;;1.50;;
5341;SDS011;2693;48.822;9.062;2024-02-21T09:16:24;3.53;;;1.63;;
5341;SDS011;2693;48.822;9.062;2024-02-21T09:18:50;4.07;;;1.48;;
5341;SDS011;2693;48.822;9.062;2024-02-21T09:21:15;3.45;;;1.75;;
5341;SDS011;2693;48.822;9.062;2024-02-21T09:23:40;2.28;;;1.27;;
5341;SDS011;2693;48.822;9.062;2024-02-21T09:26:06;5.35;;;1.70;;
5341;SDS011;2693;48.822;9.062;2024-02-21T09:28:31;2.95;;;1.42;;
5341;SDS011;2693;48.822;9.062;2024-02-21T09:30:58;4.35;;;1.65;;
5341;SDS011;2693;48.822;9.062;2024-02-21T09:33:23;3.03;;;1.15;;
5341;SDS011;2693;48.822;9.062;2024-02-21T09:35:48;2.78;;;1.30;;
5341;SDS011;2693;48.822;9.062;2024-02-21T09:38:14;4.45;;;1.48;;
5341;SDS011;2693;48.822;9.062;2024-02-21T09:40:40;3.58;;;1.50;;
5341;SDS011;2693;48.822;9.062;2024-02-21T09:43:07;5.03;;;1.80;;
5341;SDS011;2693;48.822;9.062;2024-02-21T09:45:33;4.90;;;1.52;;
5341;SDS011;2693;48.822;9.062;2024-02-21T09:48:13;4.65;;;1.50;;
5341;SDS011;2693;48.822;9.062;2024-02-21T09:50:44;3.10;;;1.23;;
5341;SDS011;2693;48.822;9.062;2024-02-21T09:53:14;3.97;;;1.58;;
5341;SDS011;2693;48.822;9.062;2024-02-21T09:55:39;5.45;;;2.00;;
5341;SDS011;2693;48.822;9.062;2024-02-21T09:58:06;2.88;;;1.42;;
5341;SDS011;2693;48.822;9.062;2024-02-21T10:00:32;3.42;;;1.27;;
5341;SDS011;2693;48.822;9.062;2024-02-21T10:02:58;5.43;;;1.70;;
5341;SDS011;2693;48.822;9.062;2024-02-21T10:05:24;3.40;;;1.30;;
5341;SDS011;2693;48.822;9.062;2024-02-21T10:07:50;3.42;;;1.63;;
5341;SDS011;2693;48.822;9.062;2024-02-21T10:10:16;4.70;;;1.45;;
5341;SDS011;2693;48.822;9.062;2024-02-21T10:12:48;4.78;;;1.67;;
5341;SDS011;2693;48.822;9.062;2024-02-21T10:15:19;4.15;;;1.73;;
5341;SDS011;2693;48.822;9.062;2024-02-21T10:17:45;3.78;;;1.27;;
5341;SDS011;2693;48.822;9.062;2024-02-21T10:20:11;4.43;;;1.70;;
5341;SDS011;2693;48.822;9.062;2024-02-21T10:22:37;4.38;;;1.60;;
5341;SDS011;2693;48.822;9.062;2024-02-21T10:25:08;3.55;;;1.40;;
5341;SDS011;2693;48.822;9.062;2024-02-21T10:27:33;4.80;;;1.30;;
5341;SDS011;2693;48.822;9.062;2024-02-21T10:29:58;4.57;;;1.67;;
5341;SDS011;2693;48.822;9.062;2024-02-21T10:32:24;4.30;;;1.63;;
5341;SDS011;2693;48.822;9.062;2024-02-21T10:35:00;2.10;;;1.10;;
5341;SDS011;2693;48.822;9.062;2024-02-21T10:37:26;4.70;;;1.67;;
5341;SDS011;2693;48.822;9.062;2024-02-21T10:39:51;3.88;;;1.67;;
5341;SDS011;2693;48.822;9.062;2024-02-21T10:42:18;4.88;;;1.40;;
5341;SDS011;2693;48.822;9.062;2024-02-21T10:44:46;4.53;;;1.90;;
5341;SDS011;2693;48.822;9.062;2024-02-21T10:47:16;4.20;;;1.45;;
5341;SDS011;2693;48.822;9.062;2024-02-21T10:49:46;4.07;;;1.58;;
5341;SDS011;2693;48.822;9.062;2024-02-21T10:54:59;5.28;;;1.95;;
5341;SDS011;2693;48.822;9.062;2024-02-21T10:57:34;3.47;;;1.75;;
5341;SDS011;2693;48.822;9.062;2024-02-21T11:00:00;2.75;;;1.45;;
5341;SDS011;2693;48.822;9.062;2024-02-21T11:02:26;3.03;;;1.40;;
5341;SDS011;2693;48.822;9.062;2024-02-21T11:04:54;3.90;;;1.42;;
5341;SDS011;2693;48.822;9.062;2024-02-21T11:07:20;2.30;;;1.33;;
5341;SDS011;2693;48.822;9.062;2024-02-21T11:09:52;4.45;;;1.30;;
5341;SDS011;2693;48.822;9.062;2024-02-21T11:12:20;5.18;;;1.58;;
5341;SDS011;2693;48.822;9.062;2024-02-21T11:14:46;7.53;;;1.48;;
5341;SDS011;2693;48.822;9.062;2024-02-21T11:17:15;2.63;;;1.30;;
5341;SDS011;2693;48.822;9.062;2024-02-21T11:19:42;3.05;;;1.63;;
5341;SDS011;2693;48.822;9.062;2024-02-21T11:22:13;2.65;;;1.17;;
5341;SDS011;2693;48.822;9.062;2024-02-21T11:24:39;3.97;;;1.20;;
5341;SDS011;2693;48.822;9.062;2024-02-21T11:27:14;2.97;;;1.30;;
5341;SDS011;2693;48.822;9.062;2024-02-21T11:32:10;4.47;;;1.55;;
5341;SDS011;2693;48.822;9.062;2024-02-21T11:34:38;6.22;;;1.38;;
5341;SDS011;2693;48.822;9.062;2024-02-21T11:37:13;3.22;;;1.40;;
5341;SDS011;2693;48.822;9.062;2024-02-21T11:39:41;2.33;;;1.23;;
5341;SDS011;2693;48.822;9.062;2024-02-21T11:42:07;3.83;;;1.73;;
5341;SDS011;2693;48.822;9.062;2024-02-21T11:44:33;4.55;;;1.50;;
5341;SDS011;2693;48.822;9.062;2024-02-21T11:46:59;3.65;;;1.92;;
5341;SDS011;2693;48.822;9.062;2024-02-21T11:49:25;3.47;;;1.40;;
5341;SDS011;2693;48.822;9.062;2024-02-21T11:51:58;2.88;;;1.45;;
5341;SDS011;2693;48.822;9.062;2024-02-21T11:54:29;3.92;;;1.55;;
5341;SDS011;2693;48.822;9.062;2024-02-21T11:56:56;3.22;;;1.60;;
5341;SDS011;2693;48.822;9.062;2024-02-21T11:59:22;4.90;;;1.50;;
5341;SDS011;2693;48.822;9.062;2024-02-21T12:01:50;3.90;;;1.90;;
5341;SDS011;2693;48.822;9.062;2024-02-21T12:04:17;2.70;;;1.25;;
5341;SDS011;2693;48.822;9.062;2024-02-21T12:06:44;3.53;;;1.70;;
5341;SDS011;2693;48.822;9.062;2024-02-21T12:09:13;2.72;;;1.25;;
5341;SDS011;2693;48.822;9.062;2024-02-21T12:11:39;4.80;;;1.95;;
5341;SDS011;2693;48.822;9.062;2024-02-21T12:14:04;3.83;;;2.22;;
5341;SDS011;2693;48.822;9.062;2024-02-21T12:16:33;2.67;;;1.20;;
5341;SDS011;2693;48.822;9.062;2024-02-21T12:18:59;3.03;;;1.63;;
5341;SDS011;2693;48.822;9.062;2024-02-21T12:21:25;3.58;;;1.27;;
5341;SDS011;2693;48.822;9.062;2024-02-21T12:23:53;3.30;;;1.27;;
5341;SDS011;2693;48.822;9.062;2024-02-21T12:26:19;3.80;;;1.60;;
5341;SDS011;2693;48.822;9.062;2024-02-21T12:28:45;2.30;;;1.20;;
5341;SDS011;2693;48.822;9.062;2024-02-21T12:31:10;2.92;;;1.50;;
5341;SDS011;2693;48.822;9.062;2024-02-21T12:33:35;3.25;;;1.40;;
5341;SDS011;2693;48.822;9.062;2024-02-21T12:36:01;3.78;;;1.50;;
5341;SDS011;2693;48.822;9.062;2024-02-21T12:38:26;3.88;;;1.30;;
5341;SDS011;2693;48.822;9.062;2024-02-21T12:40:51;3.60;;;1.50;;
5341;SDS011;2693;48.822;9.062;2024-02-21T12:43:17;3.65;;;1.30;;
5341;SDS011;2693;48.822;9.062;2024-02-21T12:45:43;4.15;;;1.35;;
5341;SDS011;2693;48.822;9.062;2024-02-21T12:48:08;1.98;;;1.42;;
5341;SDS011;2693;48.822;9.062;2024-02-21T12:50:34;3.45;;;1.58;;
5341;SDS011;2693;48.822;9.062;2024-02-21T12:52:59;4.90;;;1.30;;
5341;SDS011;2693;48.822;9.062;2024-02-21T12:55:25;2.40;;;1.30;;
5341;SDS011;2693;48.822;9.062;2024-02-21T12:57:50;2.58;;;1.60;;
5341;SDS011;2693;48.822;9.062;2024-02-21T13:00:16;3.70;;;2.60;;
5341;SDS011;2693;48.822;9.062;2024-02-21T13:02:41;3.90;;;1.52;;
5341;SDS011;2693;48.822;9.062;2024-02-21T13:05:07;3.25;;;1.27;;
5341;SDS011;2693;48.822;9.062;2024-02-21T13:07:33;2.00;;;1.20;;
5341;SDS011;2693;48.822;9.062;2024-02-21T13:09:58;3.50;;;1.13;;
5341;SDS011;2693;48.822;9.062;2024-02-21T13:12:24;3.55;;;1.20;;
5341;SDS011;2693;48.822;9.062;2024-02-21T13:14:51;2.22;;;1.10;;
5341;SDS011;2693;48.822;9.062;2024-02-21T13:17:16;3.13;;;1.00;;
5341;SDS011;2693;48.822;9.062;2024-02-21T13:19:42;3.42;;;1.20;;
5341;SDS011;2693;48.822;9.062;2024-02-21T13:22:07;2.83;;;1.00;;
5341;SDS011;2693;48.822;9.062;2024-02-21T13:24:32;2.97;;;1.00;;
5341;SDS011;2693;48.822;9.062;2024-02-21T13:26:58;4.20;;;1.30;;
5341;SDS011;2693;48.822;9.062;2024-02-21T13:29:24;2.42;;;1.00;;
5341;SDS011;2693;48.822;9.062;2024-02-21T13:31:49;2.60;;;1.33;;
5341;SDS011;2693;48.822;9.062;2024-02-21T13:34:15;2.53;;;1.15;;
5341;SDS011;2693;48.822;9.062;2024-02-21T13:36:40;1.60;;;1.00;;
5341;SDS011;2693;48.822;9.062;2024-02-21T13:39:06;3.08;;;1.38;;
5341;SDS011;2693;48.822;9.062;2024-02-21T13:41:33;2.78;;;1.60;;
5341;SDS011;2693;48.822;9.062;2024-02-21T13:43:58;1.83;;;1.02;;
5341;SDS011;2693;48.822;9.062;2024-02-21T13:46:25;1.60;;;1.10;;
5341;SDS011;2693;48.822;9.062;2024-02-21T13:48:52;2.60;;;1.10;;
5341;SDS011;2693;48.822;9.062;2024-02-21T13:51:19;2.15;;;1.10;;
5341;SDS011;2693;48.822;9.062;2024-02-21T13:53:45;2.08;;;1.00;;
5341;SDS011;2693;48.822;9.062;2024-02-21T13:56:10;1.92;;;1.20;;
5341;SDS011;2693;48.822;9.062;2024-02-21T13:58:35;1.45;;;1.20;;
5341;SDS011;2693;48.822;9.062;2024-02-21T14:01:02;1.20;;;0.90;;
5341;SDS011;2693;48.822;9.062;2024-02-21T14:03:28;3.45;;;1.20;;
5341;SDS011;2693;48.822;9.062;2024-02-21T14:05:53;2.75;;;1.00;;
5341;SDS011;2693;48.822;9.062;2024-02-21T14:08:19;1.55;;;0.70;;
5341;SDS011;2693;48.822;9.062;2024-02-21T14:10:44;3.15;;;1.00;;
5341;SDS011;2693;48.822;9.062;2024-02-21T14:13:10;2.17;;;0.95;;
5341;SDS011;2693;48.822;9.062;2024-02-21T14:15:36;5.07;;;1.15;;
5341;SDS011;2693;48.822;9.062;2024-02-21T14:18:04;2.38;;;0.90;;
5341;SDS011;2693;48.822;9.062;2024-02-21T14:20:34;3.03;;;1.35;;
5341;SDS011;2693;48.822;9.062;2024-02-21T14:22:59;2.13;;;1.25;;
5341;SDS011;2693;48.822;9.062;2024-02-21T14:25:24;2.15;;;1.20;;
5341;SDS011;2693;48.822;9.062;2024-02-21T14:27:50;2.95;;;0.90;;
5341;SDS011;2693;48.822;9.062;2024-02-21T14:30:15;1.77;;;0.98;;
5341;SDS011;2693;48.822;9.062;2024-02-21T14:32:43;3.42;;;0.93;;
5341;SDS011;2693;48.822;9.062;2024-02-21T14:35:09;1.88;;;1.00;;
5341;SDS011;2693;48.822;9.062;2024-02-21T14:37:34;4.00;;;1.50;;
5341;SDS011;2693;48.822;9.062;2024-02-21T14:39:59;3.63;;;1.70;;
5341;SDS011;2693;48.822;9.062;2024-02-21T14:42:25;4.82;;;1.30;;
5341;SDS011;2693;48.822;9.062;2024-02-21T14:44:51;2.97;;;1.40;;
5341;SDS011;2693;48.822;9.062;2024-02-21T14:47:16;3.10;;;1.70;;
5341;SDS011;2693;48.822;9.062;2024-02-21T14:49:41;3.75;;;1.65;;
5341;SDS011;2693;48.822;9.062;2024-02-21T14:52:07;3.60;;;1.20;;
5341;SDS011;2693;48.822;9.062;2024-02-21T14:54:32;3.83;;;1.30;;
5341;SDS011;2693;48.822;9.062;2024-02-21T14:56:59;3.25;;;1.30;;
5341;SDS011;2693;48.822;9.062;2024-02-21T14:59:24;4.35;;;1.52;;
5341;SDS011;2693;48.822;9.062;2024-02-21T15:01:49;5.57;;;1.30;;
5341;SDS011;2693;48.822;9.062;2024-02-21T15:04:15;2.03;;;1.15;;
5341;SDS011;2693;48.822;9.062;2024-02-21T15:06:40;1.80;;;0.90;;
5341;SDS011;2693;48.822;9.062;2024-02-21T15:09:05;2.45;;;1.00;;
5341;SDS011;2693;48.822;9.062;2024-02-21T15:11:32;1.48;;;0.70;;
5341;SDS011;2693;48.822;9.062;2024-02-21T15:13:57;2.60;;;0.82;;